Gh Galileo — V7ON5 — position and weather

sailwx.info

Track history (hours):
 
Tides and Currents Weather Stations Pressure Air Temp Water Temp Dewpoint Dewpoint Depression Visibility Wind Speed Wind Dir Waves Ship Positions

Gh Galileo

Last reported at 2017-Oct-17 16:58 UTC. Time now 2017-Oct-17 17:22 UTC.
Position N 01°17' E 104°01'.

Length 199 m; draft 12.1 m.

Type: Cargo ship. MMSI: 538007453.

Date/timePositionNaut miles runAvg speedWind from/ knotsBaromVisibWave heightAir tempDewpointWater temp
2017-Oct-17 16:58N 01°17' E 104°01'0 0.1
2017-Oct-17 15:18N 01°17' E 104°00'0 0.0
2017-Oct-17 14:54N 01°17' E 104°00'0 0.0
2017-Oct-17 14:29N 01°17' E 104°00'0 0.0
2017-Oct-17 13:18N 01°17' E 104°00'0 0.1
2017-Oct-17 13:00N 01°17' E 104°00'0 0.0
2017-Oct-17 12:28N 01°17' E 104°00'613.5
2017-Oct-17 12:00N 01°13' E 103°55'1 1.5
2017-Oct-17 11:29N 01°13' E 103°55'1 1.8
2017-Oct-17 11:00N 01°13' E 103°54'1 2.0
2017-Oct-17 10:30N 01°12' E 103°53'1 1.9
2017-Oct-17 10:00N 01°11' E 103°52'1 1.7
2017-Oct-17 09:31N 01°11' E 103°52'1 1.8
2017-Oct-17 09:00N 01°11' E 103°51'1 1.7
2017-Oct-17 08:30N 01°10' E 103°50'1318.0
2017-Oct-17 07:48N 01°17' E 104°01'0 0.0
2017-Oct-17 07:30N 01°17' E 104°01'0 0.1
2017-Oct-17 06:42N 01°17' E 104°01'0 0.1
2017-Oct-17 04:21N 01°17' E 104°00'0 0.1
2017-Oct-17 04:00N 01°17' E 104°00'0 0.1
2017-Oct-17 02:54N 01°17' E 104°00'0 0.0
2017-Oct-17 01:39N 01°17' E 104°00'0 3.1
2017-Oct-17 01:30N 01°17' E 104°00'3 5.8
2017-Oct-17 01:00N 01°15' E 103°58'3 5.8
2017-Oct-17 00:31N 01°13' E 103°56'4 8.8
2017-Oct-17 00:00N 01°11' E 103°52'5 9.8
2017-Oct-16 23:31N 01°09' E 103°47'611.2
2017-Oct-16 23:00N 01°05' E 103°43'611.4
2017-Oct-16 22:30N 01°03' E 103°38'611.8
2017-Oct-16 22:00N 01°06' E 103°33'611.7
2017-Oct-16 21:30N 01°09' E 103°28'711.7
2017-Oct-16 20:54N 01°13' E 103°22'  
Track history (hours):
 
Tides and Currents Weather Stations Pressure Air Temp Water Temp Dewpoint Dewpoint Depression Visibility Wind Speed Wind Dir Waves Ship Positions

Gh Galileo

Last reported at 2017-Oct-17 16:58 UTC. Time now 2017-Oct-17 17:23 UTC.
Position N 01°17' E 104°01'.

Length 199 m; draft 12.1 m.

Type: Cargo ship. MMSI: 538007453.

Date/timePositionNaut miles runAvg speedWind from/ knotsBaromVisibWave heightAir tempDewpointWater temp
2017-Oct-17 16:58N 01°17' E 104°01'0 0.1
2017-Oct-17 15:18N 01°17' E 104°00'0 0.0
2017-Oct-17 14:54N 01°17' E 104°00'0 0.0
2017-Oct-17 14:29N 01°17' E 104°00'0 0.0
2017-Oct-17 13:18N 01°17' E 104°00'0 0.1
2017-Oct-17 13:00N 01°17' E 104°00'0 0.0
2017-Oct-17 12:28N 01°17' E 104°00'613.5
2017-Oct-17 12:00N 01°13' E 103°55'1 1.5
2017-Oct-17 11:29N 01°13' E 103°55'1 1.8
2017-Oct-17 11:00N 01°13' E 103°54'1 2.0
2017-Oct-17 10:30N 01°12' E 103°53'1 1.9
2017-Oct-17 10:00N 01°11' E 103°52'1 1.7
2017-Oct-17 09:31N 01°11' E 103°52'1 1.8
2017-Oct-17 09:00N 01°11' E 103°51'1 1.7
2017-Oct-17 08:30N 01°10' E 103°50'1318.0
2017-Oct-17 07:48N 01°17' E 104°01'0 0.0
2017-Oct-17 07:30N 01°17' E 104°01'0 0.1
2017-Oct-17 06:42N 01°17' E 104°01'0 0.1
2017-Oct-17 04:21N 01°17' E 104°00'0 0.1
2017-Oct-17 04:00N 01°17' E 104°00'0 0.1
2017-Oct-17 02:54N 01°17' E 104°00'0 0.0
2017-Oct-17 01:39N 01°17' E 104°00'0 3.1
2017-Oct-17 01:30N 01°17' E 104°00'3 5.8
2017-Oct-17 01:00N 01°15' E 103°58'3 5.8
2017-Oct-17 00:31N 01°13' E 103°56'4 8.8
2017-Oct-17 00:00N 01°11' E 103°52'5 9.8
2017-Oct-16 23:31N 01°09' E 103°47'611.2
2017-Oct-16 23:00N 01°05' E 103°43'611.4
2017-Oct-16 22:30N 01°03' E 103°38'611.8
2017-Oct-16 22:00N 01°06' E 103°33'611.7
2017-Oct-16 21:30N 01°09' E 103°28'711.7
2017-Oct-16 20:54N 01°13' E 103°22'  

Dump ship's entire track history